Cowart, Mississippi
Current Conditions -  °F | °C
As of 6:35 AM on Monday 24 Nov 2014 (Local Time) from KGNF Reporting Station
Overcast Overcast  
Wind Chill: 52°   Ceiling: 2400
Heat Index: 52°   Visibility: 10mi
Dew Point: 43°   Wind: 15mph
Humidity: 71%   Direction: 280°W
Pressure: 29.79"   Gusts: 25mph
Location:  33.9483°N, 90.1764°W
Report Text: KGNF 241235Z AUTO 28013G22KT 262V322 10SM OVC024 11/06 A2979 RMK AO2
Loading
Personal Weather Stations






























Interactive Weather Map New forecast layout! Learn more

10-Day Weather Forecast

Advertisements
Track Severe Weather on mobile